Chimay, Belgium
Current Conditions -  °F | °C
As of 3:55 PM on Wednesday 22 Oct 2014 (Local Time) from EBFS Reporting Station
Broken Clouds Broken Clouds  
Wind Chill: 50°   Ceiling: 4500
Heat Index: 50°   Visibility: 6mi
Dew Point: 39°   Wind: 14mph
Humidity: 66%   Direction: 300°WNW
Pressure: 30.18"   Gusts: NA
Location:  50.05°N, 4.32°E
Report Text: EBFS 221355Z 30012KT 9999 FEW030 BKN045 10/04 Q1022 BLU BLU
Loading
Personal Weather Stations






























Interactive Weather Map
Tropical Storm Tracking
New forecast layout! Learn more

10-Day Weather Forecast

Advertisements
Track Severe Weather on mobile